Tiempo atmosférico en la estación meteorológica de Zumarraga, Gipuzkoa (420 m.)



Fecha
DESCASC
Temp. máxima en grados centígrados (hora)
DESCASC
Temp. mínima en grados centígrados (hora)
DESCASC
Temp. media en grados centígrados
DESCASC
Racha de viento máxima en m/sg (hora)
DESCASC
Velocidad máxima media en intervalos de 10 minutos(hora)
DESCASC
Precipitaciones diarias en mm
DESCASC
Precipitaciones de 00:00 a 06:00 en mm
DESCASC
Precipitaciones de 06:00 a 12:00 en mm
DESCASC
Precipitaciones de 12:00 a 18:00 en mm
DESCASC
Precipitaciones de 18:00 a 24:00 en mm
DESCASC
25-04-2019 15 (16:10) 7.6 (03:20) 11.3 14.72 (11:20) 3.33 (09:30) 5.1 5.1 0 0 0
24-04-2019 12.8 (16:30) 5.8 (04:20) 9.3 12.78 (14:50) 5.83 (00:10) 7.6 0.1 0 0.8 6.7
23-04-2019 16.8 (14:00) 7.1 (23:59) 11.9 9.44 (15:40) 5.83 (23:59) 0.5 0 0 0.5 0
22-04-2019 19.4 (17:00) 7 (00:00) 13.2 7.78 (18:00) 3.06 (18:00) 0 0 0 0 0
21-04-2019 14 (16:10) 5.1 (00:00) 9.5 5.28 (18:50) 2.22 (19:30) 0 0 0 0 0
20-04-2019 18.9 (14:40) 7.4 (00:00) 13.1 6.67 (13:20) 3.61 (10:00) 0 0 0 0 0
19-04-2019 18.7 (17:00) 8.7 (00:00) 13.7 10.56 (04:20) 3.61 (04:30) 0 0 0 0 0
18-04-2019 15.8 (00:00) 9.9 (00:00) 12.8 15 (09:00) 4.17 (00:30) 0 0 0 0 0
17-04-2019 18.3 (19:20) 11 (00:00) 14.6 14.17 (11:40) 5.83 (22:30) 0 0 0 0 0
16-04-2019 18.1 (17:20) 5.4 (00:00) 11.8 5.28 (17:00) 2.22 (17:00) 0.9 0.9 0 0 0
15-04-2019 20.8 (16:20) 8.6 (00:00) 14.7 19.17 (17:30) 11.39 (17:30) 36 0 0 18.7 17.3
14-04-2019 18.6 (15:40) 7 (00:00) 12.8 8.33 (16:00) 5 (15:50) 0 0 0 0 0
13-04-2019 20.2 (16:20) 0 (00:00) 10.1 5.56 (16:50) 2.5 (17:10) 0 0 0 0 0
12-04-2019 12.7 (16:20) 3.1 (00:00) 7.9 6.11 (17:30) 3.33 (07:20) 0.1 0.1 0 0 0
11-04-2019 9.1 (17:40) 5.2 (00:00) 7.2 10 (18:00) 5 (10:00) 4.2 1.3 0.5 2.4 0
10-04-2019 8 (14:10) 2.3 (00:00) 5.1 8.06 (16:00) 4.17 (16:00) 8.1 0 0.3 7.3 0.5
09-04-2019 14.9 (15:20) 2.7 (00:00) 8.8 10.28 (19:40) 5.56 (19:30) 10.2 0 0 0.9 9.3
08-04-2019 10.6 (16:30) 3.6 (00:00) 7.1 5.83 (04:40) 2.5 (10:50) 10.2 0 1 9.1 0.1
07-04-2019 12.2 (17:20) 2.8 (00:00) 7.5 7.22 (12:50) 3.61 (13:50) 1.1 0.5 0.6 0 0
06-04-2019 12 (16:10) 1.6 (00:00) 6.8 11.67 (14:20) 6.39 (20:30) 3.5 0 0 0 3.5
05-04-2019 10.6 (13:40) 3.6 (00:00) 7.1 8.89 (10:40) 3.89 (15:40) 7.9 0 0 4.5 3.4
04-04-2019 12.4 (17:00) -0.4 (00:00) 6 10.56 (18:00) 3.33 (12:30) 3.9 2.9 0.9 0.1 0
03-04-2019 6.3 (00:00) -0.3 (00:00) 3 17.22 (15:50) 9.72 (20:00) 7.7 1.5 2 1.7 2.5
02-04-2019 14.5 (14:30) 5.5 (00:00) 10 7.5 (14:50) 4.72 (11:00) 1.6 0 0 0 1.6
01-04-2019 13.5 (14:20) 6.1 (00:00) 9.8 5.83 (01:40) 2.5 (14:10) 3.2 3.1 0.1 0 0
31-03-2019 18.5 (15:50) 6.7 (00:00) 12.6 5.83 (18:20) 2.78 (18:20) 0 0 0 0 0
30-03-2019 18.6 (16:10) 8 (00:00) 13.3 8.06 (00:10) 3.89 (14:00) 0 0 0 0 0
29-03-2019 18 (15:00) 1 (00:00) 9.5 10 (23:50) 3.89 (11:20) 0 0 0 0 0
28-03-2019 13.1 (15:30) 2.7 (00:00) 7.9 5.83 (13:40) 2.78 (10:10) 0 0 0 0 0
27-03-2019 12.8 (14:20) 0.2 (00:00) 6.5 7.22 (17:50) 3.61 (17:50) 0 0 0 0 0

Gráficas

Temp. máximas Temp. mínimas Temp. medias Precipitaciones Rachas de viento máximas Velocidades máximas media en intervalos de 10 minutos

Datos horarios

Fecha y hora oficial Temperatura (ºC) Velocidad del viento (km/h) Dirección del viento Racha (km/h) Dirección de racha Precipitación (mm) Presión (hPa) Tendencia (hPa) Humedad (%)
2019-04-25 23:00:00 8.8 2 Noroeste 31 Sur 0 961.4 3 55
2019-04-25 22:00:00 10.1 7 Oeste 45 Sur 0 960 1.8 49
2019-04-25 21:00:00 11.3 6 Sudoeste 48 Noroeste 0 958.7 1.1 47
2019-04-25 20:00:00 11.3 8 Oeste 51 Oeste 0 958.4 0.8 46
2019-04-25 19:00:00 12.4 6 Oeste 32 Norte 0 958.2 1 48
2019-04-25 18:00:00 13.3 6 Sur 31 Sudoeste 0 957.6 0.7 40
2019-04-25 17:00:00 13.8 4 Sudoeste 39 Noroeste 0 957.6 0.5 39
2019-04-25 16:00:00 14.6 7 Oeste 35 Sur 0 957.2 0.1 38
2019-04-25 15:00:00 13.4 5 Sudoeste 36 Oeste 0 956.9 0.1 40
2019-04-25 14:00:00 12.2 5 Oeste 38 Oeste 0 957.1 1.1 43
2019-04-25 13:00:00 12.7 10 Oeste 37 Norte 0 957.1 1.5 49
2019-04-25 12:00:00 11 6 Oeste 53 Sudoeste 0 956.8 2 54
2019-04-25 11:00:00 9.6 5 Sudoeste 35 Noroeste 0 956 1.8 58
2019-04-25 10:00:00 9.9 5 Sudoeste 40 Noroeste 0 955.6 2.3 54
2019-04-25 09:00:00 9.2 4 Sudoeste 35 Noroeste 0 954.8 2.4 56
2019-04-25 08:00:00 8 2 Oeste 36 Sudeste 0 954.2 2.2 62
2019-04-25 07:00:00 7.6 4 Sudoeste 38 Sudeste 0 953.3 1.5 62
2019-04-25 06:00:00 8.5 5 Oeste 33 Noroeste 0 952.4 0.8 59
2019-04-25 05:00:00 8.5 6 Sur 35 Sur 0 952 0.1 69
2019-04-25 04:00:00 8.1 6 Oeste 33 Noroeste 0.8 951.8 0.8 82
2019-04-25 03:00:00 7.8 2 Oeste 18 Sudoeste 2.9 951.6 0.6 99
2019-04-25 02:00:00 8.4 0 Calma 16 Sur 1.3 951.9 0.9 96
2019-04-25 01:00:00 10.5 2 Sudoeste 25 Oeste 0.1 951 0.4 70
2019-04-25 00:00:00 10.8 2 Noroeste 27 Sudoeste 0 951 1.4 65
2019-04-24 23:00:00 11 6 Sudoeste 46 Sudoeste 0.1 951 0.8 66
2019-04-24 22:00:00 10.2 9 Sur 41 Sudeste 0.2 950.6 2.4 79
2019-04-24 21:00:00 8 8 Sudeste 24 Sur 1.3 949.6 0 99
2019-04-24 20:00:00 8.6 4 Sur 27 Oeste 4.7 950.2 1.9 97
2019-04-24 19:00:00 9.1 13 Sudeste 34 Este 0.4 948.2 -0.2 88
2019-04-24 18:00:00 9.3 5 Sur 41 Este 0.8 949.6 0.5 84
2019-04-24 17:00:00 11.5 14 Sudeste 46 Sur 0 948.3 -0.8 58
2019-04-24 16:00:00 11.7 11 Sudeste 42 Sudeste 0 948.4 -0.8 57
2019-04-24 15:00:00 11.1 13 Sudeste 46 Sudeste 0 949.1 -0.7 55
2019-04-24 14:00:00 10.1 15 Sudeste 42 Sudeste 0 949.1 -0.6 56
2019-04-24 13:00:00 10.2 9 Sudeste 38 Este 0 949.2 -0.3 55
2019-04-24 12:00:00 8.7 11 Este 36 Sudeste 0 949.8 -0.3 59
2019-04-24 11:00:00 8.6 6 Sudeste 27 Este 0 949.7 -0.2 56
2019-04-24 10:00:00 8.3 7 Sudeste 22 Este 0 949.5 -0.4 59
2019-04-24 09:00:00 8.4 3 Sur 19 Sur 0 950.1 0.2 57
2019-04-24 08:00:00 7.6 2 Sur 18 Sudoeste 0 949.9 -0.2 60
2019-04-24 07:00:00 7.1 4 Sur 31 Sudoeste 0 949.9 -0.2 60
2019-04-24 06:00:00 6.9 2 Oeste 28 Oeste 0 949.9 -0.3 65
2019-04-24 05:00:00 6.6 3 Sudeste 20 Este 0 950.1 0.2 76
2019-04-24 04:00:00 5.9 0 Calma 13 Oeste 0.1 950.1 0.4 94
2019-04-24 03:00:00 6.5 7 Oeste 13 Oeste 0 950.2 1 93
2019-04-24 02:00:00 6.2 0 Calma 7 Oeste 0 949.9 2 94
2019-04-24 01:00:00 6.3 5 Oeste 35 Noroeste 0 949.7 2.4 92
2019-04-24 00:00:00 7.1 21 Oeste 33 Noroeste 0 949.2 3.1 88
2019-04-23 23:00:00 8.9 2 Noroeste 13 Noroeste 0 947.9 1.8 71
2019-04-23 22:00:00 8.5 0 Calma 11 Este 0 947.3 1.4 71
2019-04-23 21:00:00 8.8 4 Este 19 Sur 0 946.1 0.7 71
2019-04-23 20:00:00 10.1 3 Sudoeste 30 Sur 0 946.1 0.7 60
2019-04-23 19:00:00 10.9 2 Sudoeste 28 Oeste 0 945.9 0.4 70
2019-04-23 18:00:00 10.8 4 Noroeste 15 Noroeste 0.1 945.4 0.9 82
2019-04-23 17:00:00 9.8 4 Noroeste 28 Oeste 0.4 945.4 1.1 86
2019-04-23 16:00:00 12.5 5 Noroeste 34 Oeste 0 945.5 0.6 71
2019-04-23 15:00:00 15 5 Sudeste 24 Sudeste 0 944.5 -0.7 58
2019-04-23 14:00:00 16.5 5 Sudeste 21 Este 0 944.3 -0.7 56
2019-04-23 13:00:00 14.7 4 Sudeste 15 Este 0 944.9 0 64
2019-04-23 12:00:00 13.5 4 Este 20 Este 0 945.2 0.3 67
2019-04-23 11:00:00 12.9 8 Este 29 Este 0 945 0.1 69
2019-04-23 10:00:00 13.1 9 Sudeste 26 Sudeste 0 944.9 0 68
2019-04-23 09:00:00 12.5 7 Sudeste 27 Sudeste 0 944.9 0.1 70
2019-04-23 08:00:00 10.8 0 Calma 16 Este 0 944.9 0 75
2019-04-23 07:00:00 10.9 0 Calma 16 Este 0 944.9 -0.4 72
2019-04-23 06:00:00 11.3 4 Sudeste 19 Este 0 944.8 -1 70
2019-04-23 05:00:00 11.6 4 Sudeste 25 Sudeste 0 944.9 -1.3 67
2019-04-23 04:00:00 11.7 0 Calma 19 Sudeste 0 945.3 -1.2 65
2019-04-23 03:00:00 12.9 9 Sudeste 28 Sudeste 0 945.8 -1.3 60
2019-04-23 02:00:00 12.2 5 Este 17 Sudeste 0 946.2 -1.1 60
2019-04-23 01:00:00 12.9 0 Calma 15 Sudeste 0 946.5 -1.1 56
2019-04-23 00:00:00 13.4 2 Sudeste 21 Este 0 947.1 -0.5 52
2019-04-22 23:00:00 14.3 7 Sudeste 25 Este 0 947.3 -0.4 50
2019-04-22 22:00:00 15 6 Este 17 Este 0 947.6 -0.1 48
2019-04-22 21:00:00 15.7 4 Sudeste 15 Este 0 947.6 -0.2 47
2019-04-22 20:00:00 16.3 4 Sudeste 20 Este 0 947.7 -0.4 44
2019-04-22 19:00:00 16.9 9 Sudeste 23 Sudeste 0 947.7 -1.3 42
2019-04-22 18:00:00 18.2 11 Sudeste 28 Sudeste 0 947.8 -1.9 40
2019-04-22 17:00:00 19.3 5 Sudeste 19 Sudeste 0 948.1 -2.6 37
2019-04-22 16:00:00 17.7 5 Sudeste 20 Sudeste 0 949 -2.5 42
2019-04-22 15:00:00 17.4 5 Este 15 Sudeste 0 949.7 -2.9 43
2019-04-22 14:00:00 17.7 0 Calma 17 Sudoeste 0 950.7 -2.6 44
2019-04-22 13:00:00 16.4 4 Noroeste 13 Oeste 0 951.5 -2.4 53
2019-04-22 12:00:00 13.8 0 Calma 10 Este 0 952.6 -2 63
2019-04-22 11:00:00 12.2 2 Nordeste 8 Este 0 953.3 -1.5 77
2019-04-22 10:00:00 10 0 Calma 5 Nordeste 0 953.9 -1.1 90
2019-04-22 09:00:00 8.3 0 Calma 2 Oeste 0 954.6 -0.9 99
2019-04-22 08:00:00 7.1 0 Calma 3 Sudeste 0 954.8 -2 99
2019-04-22 07:00:00 7.5 0 Calma 8 Oeste 0 955 -2.4 99
2019-04-22 06:00:00 7.8 0 Calma 3 Oeste 0 955.5 -3 99
2019-04-22 05:00:00 8.2 0 Calma 6 Oeste 0 956.8 -2.4 99
2019-04-22 04:00:00 8.4 0 Calma 6 Sudoeste 0 957.4 -2.7 98
2019-04-22 03:00:00 8.5 0 Calma 10 Oeste 0 958.5 -2 98
2019-04-22 02:00:00 8.6 0 Calma 7 Sudoeste 0 959.2 -1.9 97
2019-04-22 01:00:00 8.9 0 Calma 10 Oeste 0 960.1 -1.2 97
2019-04-22 00:00:00 9.1 0 Calma 5 Sudoeste 0 960.5 -0.9 97
2019-04-21 23:00:00 9.3 0 Calma 6 Sudoeste 0 961.1 -0.2 94
2019-04-21 22:00:00 9.6 0 Calma 5 Oeste 0 961.3 -0.1 90
2019-04-21 21:00:00 10.6 0 Calma 11 Noroeste 0 961.4 -0.4 82
2019-04-21 20:00:00 11.1 3 Noroeste 18 Noroeste 0 961.3 -1 79
2019-04-21 19:00:00 12.5 6 Noroeste 19 Nordeste 0 961.4 -1.4 67
2019-04-21 18:00:00 13.5 4 Norte 15 Noroeste 0 961.8 -1.7 64
2019-04-21 17:00:00 13.7 4 Este 11 Noroeste 0 962.3 -1.5 61
2019-04-21 16:00:00 13.6 3 Norte 14 Norte 0 962.8 -1.7 63
2019-04-21 15:00:00 13.1 5 Noroeste 14 Noroeste 0 963.5 -1.6 63
2019-04-21 14:00:00 12.8 3 Noroeste 13 Noroeste 0 963.8 -1.9 62
2019-04-21 13:00:00 12.5 0 Calma 13 Noroeste 0 964.5 -1.5 65
2019-04-21 12:00:00 12.1 3 Este 13 Sudeste 0 965.1 -1.1 66
2019-04-21 11:00:00 11.4 2 Este 10 Este 0 965.7 -0.6 68
2019-04-21 10:00:00 9.3 0 Calma 6 Oeste 0 966 -0.4 89
2019-04-21 09:00:00 6.4 0 Calma 5 Sudoeste 0 966.2 -0.5 99
2019-04-21 08:00:00 5.6 0 Calma 4 Oeste 0 966.3 -0.5 97
2019-04-21 07:00:00 5.1 0 Calma 4 Sudoeste 0 966.4 -1.1 97
2019-04-21 06:00:00 6 0 Calma 4 Sudoeste 0 966.7 -1.8 97
2019-04-21 05:00:00 6.2 0 Calma 6 Sudoeste 0 966.8 -2.7 95
2019-04-21 04:00:00 6 0 Calma 5 Sudoeste 0 967.5 -1.6 94
2019-04-21 03:00:00 7.1 0 Calma 10 Sudoeste 0 968.5 -1.2 87
2019-04-21 02:00:00 7.6 0 Calma 6 Oeste 0 969.5 -0.2 89
2019-04-21 01:00:00 8 0 Calma 7 Sudoeste 0 969.1 -0.4 85
2019-04-21 00:00:00 9.1 0 Calma 3 Sudoeste 0 969.7 0.6 74
2019-04-20 23:00:00 10.5 0 Calma 7 Noroeste 0 969.7 0.9 68
2019-04-20 22:00:00 11.9 2 Noroeste 9 Oeste 0 969.5 0.7 60
2019-04-20 21:00:00 13.1 2 Norte 13 Norte 0 969.1 0.5 63
2019-04-20 20:00:00 13.6 6 Norte 17 Nordeste 0 968.8 0.1 58
2019-04-20 19:00:00 14.7 8 Norte 21 Norte 0 968.8 -0.2 57
2019-04-20 18:00:00 16.4 9 Norte 21 Nordeste 0 968.6 -0.8 49
2019-04-20 17:00:00 17.2 10 Norte 23 Nordeste 0 968.7 -1.2 47
2019-04-20 16:00:00 17.2 8 Norte 22 Noroeste 0 969 -1.8 50
2019-04-20 15:00:00 18 6 Norte 21 Nordeste 0 969.4 -1.8 49
2019-04-20 14:00:00 17.9 2 Nordeste 24 Noroeste 0 969.9 -1.7 45
2019-04-20 13:00:00 16.7 6 Noroeste 18 Noroeste 0 970.8 -1.1 52
2019-04-20 12:00:00 15.1 8 Noroeste 22 Noroeste 0 971.2 -0.9 58
2019-04-20 11:00:00 13.8 10 Noroeste 20 Oeste 0 971.6 -0.6 62
2019-04-20 10:00:00 12.4 13 Oeste 21 Noroeste 0 971.9 0.1 70
2019-04-20 09:00:00 10.6 2 Oeste 8 Oeste 0 972.1 0.2 91
2019-04-20 08:00:00 8.9 2 Oeste 9 Oeste 0 972.2 -0.3 99
2019-04-20 07:00:00 7.9 3 Oeste 9 Sudoeste 0 971.8 -0.9 99
2019-04-20 06:00:00 7.4 2 Sudoeste 9 Sudoeste 0 971.9 -1.1 99
2019-04-20 05:00:00 7.6 0 Calma 7 Oeste 0 972.5 -0.7 99
2019-04-20 04:00:00 8.1 2 Sudoeste 9 Sudoeste 0 972.7 -0.7 97
2019-04-20 03:00:00 8.7 0 Calma 3 Sudoeste 0 973 -0.6 94
2019-04-20 02:00:00 9.5 0 Calma 5 Sudoeste 0 973.2 -0.1 91
2019-04-20 01:00:00 10.2 0 Calma 5 Sudoeste 0 973.4 0.9 87
2019-04-20 00:00:00 11.4 2 Oeste 8 Oeste 0 973.6 1.9 80
2019-04-19 23:00:00 11.5 0 Calma 5 Sudoeste 0 973.3 2.4 76
2019-04-19 22:00:00 12.1 0 Calma 3 Oeste 0 972.5 2 70
2019-04-19 21:00:00 14.2 0 Calma 9 Noroeste 0 971.7 1.6 59
2019-04-19 20:00:00 16.4 4 Norte 19 Noroeste 0 970.9 0.7 50
2019-04-19 19:00:00 17.5 8 Norte 19 Noroeste 0 970.5 0 50
2019-04-19 18:00:00 18.4 6 Norte 16 Noroeste 0 970.1 -0.1 52
2019-04-19 17:00:00 17.8 8 Norte 18 Noroeste 0 970.2 0 54
2019-04-19 16:00:00 17.1 7 Noroeste 21 Noroeste 0 970.5 0.2 58
2019-04-19 15:00:00 15.9 2 Nordeste 9 Noroeste 0 970.2 0.2 62
2019-04-19 14:00:00 15.7 0 Calma 5 Este 0 970.2 0.6 61
2019-04-19 13:00:00 15 2 Este 5 Sudeste 0 970.3 1.2 62
2019-04-19 12:00:00 13.8 2 Este 7 Sudeste 0 970 1.6 64
2019-04-19 11:00:00 12.7 0 Calma 3 Este 0 969.6 1.9 65
2019-04-19 10:00:00 11.4 0 Calma 0 Calma 0 969.1 2.1 78
2019-04-19 09:00:00 10.3 0 Calma 4 Este 0 968.4 1.6 76
2019-04-19 08:00:00 10.5 0 Calma 19 Este 0 967.7 1.3 69
2019-04-19 07:00:00 11 4 Sudeste 15 Sudeste 0 967 1.2 63
2019-04-19 06:00:00 11.6 5 Sudeste 32 Sur 0 966.8 0.8 59
2019-04-19 05:00:00 12.5 4 Sudeste 38 Este 0 966.4 -0.4 52
2019-04-19 04:00:00 13 11 Sudeste 32 Este 0 965.8 -0.5 50
2019-04-19 03:00:00 9.3 0 Calma 10 Este 0 966 -0.3 94
2019-04-19 02:00:00 8.8 0 Calma 4 Sudeste 0 966.8 0.9 97
2019-04-19 01:00:00 9.1 0 Calma 2 Oeste 0 966.3 0.6 95
2019-04-19 00:00:00 9.9 0 Calma 5 Sudeste 0 966.3 1.1 91
2019-04-18 23:00:00 10.6 0 Calma 6 Oeste 0 965.9 1.1 85
2019-04-18 22:00:00 10.8 3 Oeste 10 Oeste 0 965.7 1.6 88
2019-04-18 21:00:00 11.1 3 Noroeste 14 Norte 0 965.2 1.2 88
2019-04-18 20:00:00 11.1 0 Calma 22 Noroeste 0 964.8 1 90
2019-04-18 19:00:00 11.6 5 Norte 26 Norte 0 964.1 0.3 88
2019-04-18 18:00:00 11.7 8 Noroeste 23 Noroeste 0 964 0.2 87
2019-04-18 17:00:00 12.6 9 Norte 26 Norte 0 963.8 0.1 84
2019-04-18 16:00:00 13.9 12 Noroeste 21 Noroeste 0 963.8 -0.5 72
2019-04-18 15:00:00 14.5 7 Norte 21 Noroeste 0 963.8 -1.2 63
2019-04-18 14:00:00 14.5 3 Nordeste 10 Este 0 963.7 -1.2 61
2019-04-18 13:00:00 12.1 0 Calma 20 Sudeste 0 964.3 0.4 69
2019-04-18 12:00:00 12.2 10 Sudeste 30 Sudeste 0 965 1.4 65
2019-04-18 11:00:00 12.3 0 Calma 27 Este 0 964.9 2.2 65
2019-04-18 10:00:00 12.4 4 Este 28 Este 0 963.9 1.2 62
2019-04-18 09:00:00 12.2 9 Sudeste 54 Sudeste 0 963.6 0.8 61
2019-04-18 08:00:00 12.2 4 Sudeste 31 Este 0 962.7 0 59
2019-04-18 07:00:00 12 0 Calma 18 Este 0 962.7 0.2 58
2019-04-18 06:00:00 12.5 4 Este 19 Sudeste 0 962.8 0.2 56
2019-04-18 05:00:00 12.7 4 Este 31 Sudeste 0 962.7 0.1 53
2019-04-18 04:00:00 13.6 4 Sudeste 34 Sudeste 0 962.5 0.2 50
2019-04-18 03:00:00 13.4 9 Sudeste 34 Este 0 962.6 0.7 49
2019-04-18 02:00:00 14.1 4 Sudeste 31 Sudeste 0 962.6 0.3 51
2019-04-18 01:00:00 15.1 11 Sudeste 37 Sudeste 0 962.3 2.3 52
2019-04-18 00:00:00 15.8 13 Sudeste 38 Sudeste 0 961.9 2.7 51
2019-04-17 23:00:00 16.6 0 Calma 48 Sudeste 0 962.3 2.9 49
2019-04-17 22:00:00 17.2 16 Sudeste 46 Sudeste 0 960 0.8 48
2019-04-17 21:00:00 17.2 13 Sudeste 47 Sudeste 0 959.2 0 50
2019-04-17 20:00:00 17.7 12 Sudeste 40 Este 0 959.4 -0.3 47
2019-04-17 19:00:00 17.9 14 Sudeste 45 Sudeste 0 959.2 -1.1 46
2019-04-17 18:00:00 17.4 5 Sudeste 33 Sudeste 0 959.2 -1.4 50
2019-04-17 17:00:00 17.3 4 Sudeste 34 Sudeste 0 959.7 -1.4 52
2019-04-17 16:00:00 16.6 9 Sudeste 38 Este 0 960.3 -1 52
2019-04-17 15:00:00 15.7 10 Sudeste 30 Sudeste 0 960.6 -1.2 55
2019-04-17 14:00:00 14.8 11 Sudeste 31 Este 0 961.1 -0.9 56
2019-04-17 13:00:00 13.9 10 Este 34 Este 0 961.3 -0.9 58
2019-04-17 12:00:00 12.6 12 Sudeste 51 Este 0 961.8 -0.8 61
2019-04-17 11:00:00 11.9 14 Sudeste 37 Este 0 962 -0.4 62
2019-04-17 10:00:00 11.7 10 Sudeste 45 Sudeste 0 962.2 -0.5 63
2019-04-17 09:00:00 11.4 10 Sudeste 46 Sudeste 0 962.6 -0.1 63
2019-04-17 08:00:00 11.4 14 Sudeste 41 Este 0 962.4 -0.2 60
2019-04-17 07:00:00 11.6 6 Este 27 Este 0 962.7 -0.7 60
2019-04-17 06:00:00 11.8 6 Este 22 Este 0 962.7 -1.5 59
2019-04-17 05:00:00 12.2 10 Sudeste 26 Sudeste 0 962.6 -1.8 58
2019-04-17 04:00:00 12.9 12 Sudeste 41 Sudeste 0 963.4 -0.9 56
2019-04-17 03:00:00 13.1 8 Sudeste 31 Sudeste 0 964.2 -0.5 59
2019-04-17 02:00:00 13.1 6 Este 28 Este 0 964.4 -0.6 60
2019-04-17 01:00:00 11.9 5 Este 19 Este 0 964.3 -0.8 67
2019-04-17 00:00:00 11.6 0 Calma 9 Sudeste 0 964.7 -0.4 67
2019-04-16 23:00:00 11.1 0 Calma 0 Calma 0 965 0.1 83
2019-04-16 22:00:00 11.5 0 Calma 3 Noroeste 0 965.1 0.1 85
2019-04-16 21:00:00 13.1 0 Calma 8 Sudeste 0 965.1 -0.1 74
2019-04-16 20:00:00 15.6 0 Calma 11 Este 0 964.9 -1 59
2019-04-16 19:00:00 16.6 4 Nordeste 15 Nordeste 0 965 -1.9 52
2019-04-16 18:00:00 16.9 8 Nordeste 15 Nordeste 0 965.2 -2.2 49
2019-04-16 17:00:00 17.4 8 Este 19 Este 0 965.9 -2.3 43
2019-04-16 16:00:00 16.7 6 Este 16 Este 0 966.9 -1.9 43
2019-04-16 15:00:00 15.7 8 Este 15 Este 0 967.4 -1.9 46
2019-04-16 14:00:00 14.7 4 Este 14 Este 0 968.2 -1.4 43
2019-04-16 13:00:00 13.6 4 Este 16 Este 0 968.8 -0.7 52
2019-04-16 12:00:00 11.7 5 Este 14 Este 0 969.3 -0.3 67
2019-04-16 11:00:00 10.1 3 Este 10 Este 0 969.6 0.4 88
2019-04-16 10:00:00 8.3 5 Este 8 Sudeste 0 969.5 1.2 99
2019-04-16 09:00:00 7.5 0 Calma 7 Sudoeste 0 969.6 1.2 99
2019-04-16 08:00:00 5.7 0 Calma 4 Sudoeste 0 969.2 0.7 99
2019-04-16 07:00:00 6 0 Calma 3 Oeste 0 968.3 0.2 99
2019-04-16 06:00:00 6.8 0 Calma 3 Sudoeste 0 968.4 0.5 99
2019-04-16 05:00:00 7.1 0 Calma 4 Sudoeste 0.1 968.5 0.7 99
2019-04-16 04:00:00 7.8 0 Calma 5 Sudeste 0 968.1 0.3 99
2019-04-16 03:00:00 7.9 0 Calma 0 Calma 0 967.9 0.5 99
2019-04-16 02:00:00 8 0 Calma 6 Oeste 0 967.8 1.1 99
2019-04-16 01:00:00 8.2 0 Calma 13 Sudoeste 0.8 967.8 2 99
2019-04-16 00:00:00 9 6 Oeste 14 Oeste 3 967.4 2.8 99
2019-04-15 23:00:00 9.1 0 Calma 8 Sur 2.3 966.7 3.1 99
2019-04-15 22:00:00 9.1 0 Calma 10 Oeste 1.6 965.8 4.3 99
2019-04-15 21:00:00 9.2 3 Oeste 12 Oeste 3.8 964.6 3.7 99
2019-04-15 20:00:00 9.6 13 Oeste 45 Oeste 2.9 963.6 5.8 99
2019-04-15 19:00:00 11.3 12 Oeste 35 Noroeste 3.7 961.5 3.2 99
2019-04-15 18:00:00 10.3 21 Oeste 69 Noroeste 18.7 960.9 2.3 98
2019-04-15 17:00:00 19.7 5 Sudeste 29 Este 0 957.8 -1.4 48
2019-04-15 16:00:00 19.2 5 Sudeste 22 Sudeste 0 958.3 -1.2 51
2019-04-15 15:00:00 19.1 12 Sudeste 30 Este 0 958.6 -1.5 51
2019-04-15 14:00:00 18.4 12 Sudeste 41 Sudeste 0 959.2 -1.5 52
2019-04-15 13:00:00 18.1 16 Sudeste 39 Sudeste 0 959.5 -1.7 52
2019-04-15 12:00:00 18.6 14 Sudeste 31 Sudeste 0 960.1 -1.9 52
2019-04-15 11:00:00 16.7 9 Este 32 Este 0 960.7 -1.5 61
2019-04-15 10:00:00 14.6 8 Este 18 Este 0 961.2 -0.9 70
2019-04-15 09:00:00 11.2 0 Calma 5 Norte 0 962 -0.9 99
2019-04-15 08:00:00 9.3 0 Calma 4 Sudeste 0 962.2 -0.9 99
2019-04-15 07:00:00 9.5 0 Calma 4 Sudeste 0 962.1 -1.7 99
2019-04-15 06:00:00 8.9 0 Calma 5 Oeste 0 962.9 -1.8 99
2019-04-15 05:00:00 9.5 0 Calma 4 Sudeste 0 963.1 -2.3 99
2019-04-15 04:00:00 9.4 0 Calma 4 Sudeste 0 963.8 -2.3 99
2019-04-15 03:00:00 9.8 0 Calma 5 Este 0 964.7 -1.7 99
2019-04-15 02:00:00 10.2 0 Calma 0 Calma 0 965.4 -0.9 99
2019-04-15 01:00:00 10.7 0 Calma 2 Sudeste 0 966.1 -0.2 99
2019-04-15 00:00:00 10.9 0 Calma 0 Calma 0 966.4 0.4 97
2019-04-14 23:00:00 11.7 0 Calma 0 Calma 0 966.3 0.6 96
2019-04-14 22:00:00 12.7 0 Calma 0 Calma 0 966.3 0.4 91
2019-04-14 21:00:00 14.1 0 Calma 9 Norte 0 966 -0.2 84
2019-04-14 20:00:00 15.8 2 Nordeste 11 Noroeste 0 965.7 -0.8 75
2019-04-14 19:00:00 16.8 4 Noroeste 15 Norte 0 965.9 -0.7 69
2019-04-14 18:00:00 16 8 Norte 25 Noroeste 0 966.2 -0.2 70
2019-04-14 17:00:00 17.1 14 Noroeste 26 Noroeste 0 966.5 0.4 55
2019-04-14 16:00:00 17.9 17 Noroeste 30 Oeste 0 966.6 0.3 49
2019-04-14 15:00:00 17.8 13 Noroeste 28 Oeste 0 966.4 -0.1 46
2019-04-14 14:00:00 16.8 15 Noroeste 27 Oeste 0 966.1 -0.2 45
2019-04-14 13:00:00 16.8 10 Oeste 21 Oeste 0 966.3 0 41
2019-04-14 12:00:00 16.2 11 Noroeste 18 Noroeste 0 966.5 0.2 42
2019-04-14 11:00:00 13.3 0 Calma 4 Este 0 966.3 0.2 59
2019-04-14 10:00:00 11.6 0 Calma 0 Calma 0 966.3 0.3 68
2019-04-14 09:00:00 9.7 0 Calma 0 Calma 0 966.3 0.5 72
2019-04-14 08:00:00 9 0 Calma 6 Sudoeste 0 966.1 0.2 66
2019-04-14 07:00:00 8.7 2 Oeste 8 Oeste 0 966 0.2 66
2019-04-14 06:00:00 8.2 0 Calma 4 Oeste 0 965.8 -0.3 69
2019-04-14 05:00:00 7.9 0 Calma 2 Sudoeste 0 965.9 -0.7 70
2019-04-14 04:00:00 7.5 0 Calma 6 Sudoeste 0 965.8 -1.1 71
2019-04-14 03:00:00 7.8 0 Calma 2 Sudoeste 0 966.1 -1 67
2019-04-14 02:00:00 7.9 0 Calma 6 Sudoeste 0 966.6 -0.6 67
2019-04-14 01:00:00 8.1 0 Calma 9 Oeste 0 966.9 -0.2 69
2019-04-14 00:00:00 8 2 Sudoeste 11 Sudoeste 0 967.1 0.5 67
2019-04-13 23:00:00 8.5 2 Sudoeste 10 Sudoeste 0 967.2 0.8 62
2019-04-13 22:00:00 10.2 3 Sudoeste 8 Sudoeste 0 967.1 1.1 54
2019-04-13 21:00:00 13.1 0 Calma 14 Noroeste 0 966.6 0.4 38
2019-04-13 20:00:00 16.2 5 Noroeste 16 Noroeste 0 966.4 0.1 30
2019-04-13 19:00:00 17.8 5 Norte 15 Nordeste 0 966 -0.6 28
2019-04-13 18:00:00 18.7 4 Nordeste 19 Norte 0 966.2 -1.2 24
2019-04-13 17:00:00 20 7 Noroeste 20 Noroeste 0 966.3 -1.6 22
2019-04-13 16:00:00 19.4 3 Noroeste 10 Oeste 0 966.6 -1.9 19
2019-04-13 15:00:00 17.7 3 Este 14 Este 0 967.4 -1.3 18
2019-04-13 14:00:00 16.9 3 Nordeste 12 Norte 0 967.9 -1.1 23
2019-04-13 13:00:00 15.7 3 Este 12 Este 0 968.5 -0.7 30
2019-04-13 12:00:00 12.2 5 Este 10 Este 0 968.7 -0.6 58
2019-04-13 11:00:00 8.6 4 Este 8 Este 0 969 -0.1 68
2019-04-13 10:00:00 6.1 3 Este 6 Sudeste 0 969.2 0.2 89
2019-04-13 09:00:00 2.2 0 Calma 2 Sudoeste 0 969.3 0.5 99
2019-04-13 08:00:00 0.6 0 Calma 0 Calma 0 969.1 0.1 99
2019-04-13 07:00:00 0.4 0 Calma 0 Calma 0 969 -0.2 99
2019-04-13 06:00:00 1.1 0 Calma 0 Calma 0 968.8 -0.7 99
2019-04-13 05:00:00 1.2 0 Calma 2 Sudoeste 0 969 -1 99
2019-04-13 04:00:00 1.1 0 Calma 2 Sudoeste 0 969.2 -0.9 99
2019-04-13 03:00:00 2.3 0 Calma 0 Calma 0 969.5 -0.7 99
2019-04-13 02:00:00 2.1 0 Calma 2 Sudoeste 0 970 -0.2 99
2019-04-13 01:00:00 2.8 0 Calma 3 Sudoeste 0 970.1 0.1 99
2019-04-13 00:00:00 3.3 0 Calma 3 Sudoeste 0 970.2 0.7 98
2019-04-12 23:00:00 3.9 0 Calma 0 Calma 0 970.2 0.9 93
2019-04-12 22:00:00 5.5 0 Calma 9 Oeste 0 970 0.7 86
2019-04-12 21:00:00 7.8 5 Noroeste 13 Norte 0 969.5 0.4 71
2019-04-12 20:00:00 9.4 6 Noroeste 14 Norte 0 969.3 0.2 59
2019-04-12 19:00:00 10.5 5 Norte 17 Norte 0 969.3 -0.4 55
2019-04-12 18:00:00 11.2 6 Norte 22 Este 0 969.1 -1.4 52
2019-04-12 17:00:00 11.8 6 Nordeste 20 Noroeste 0 969.1 -1.4 52
2019-04-12 16:00:00 11.2 7 Norte 21 Nordeste 0 969.7 -0.7 53
2019-04-12 15:00:00 10.9 9 Norte 21 Nordeste 0 970.5 -0.2 49
2019-04-12 14:00:00 10.9 8 Norte 20 Noroeste 0 970.5 -0.4 54
2019-04-12 13:00:00 9.7 7 Norte 21 Norte 0 970.4 -0.2 61
2019-04-12 12:00:00 9.6 6 Noroeste 17 Norte 0 970.7 0.2 70
2019-04-12 11:00:00 7.7 6 Noroeste 19 Oeste 0 970.9 0.7 87
2019-04-12 10:00:00 6.7 8 Oeste 19 Oeste 0 970.6 0.5 96
2019-04-12 09:00:00 6.1 4 Oeste 13 Oeste 0 970.5 0.5 99
2019-04-12 08:00:00 5.7 6 Oeste 20 Oeste 0 970.2 0.1 99
2019-04-12 07:00:00 6 9 Oeste 19 Oeste 0 970.1 -0.2 99
2019-04-12 06:00:00 6 8 Oeste 19 Oeste 0 970 -0.7 99
2019-04-12 05:00:00 5.9 6 Oeste 14 Oeste 0.1 970.1 -0.9 99
2019-04-12 04:00:00 6 7 Oeste 17 Oeste 0 970.3 -0.7 99
2019-04-12 03:00:00 6.1 8 Oeste 17 Oeste 0 970.7 -0.6 98
2019-04-12 02:00:00 6 10 Oeste 16 Noroeste 0 971 -0.1 97
2019-04-12 01:00:00 6.1 6 Noroeste 20 Oeste 0 971 0.2 97
2019-04-12 00:00:00 6.2 7 Oeste 16 Oeste 0 971.3 0.8 95
2019-04-11 23:00:00 6.3 11 Oeste 20 Oeste 0 971.1 1 94
2019-04-11 22:00:00 6.2 10 Oeste 19 Oeste 0 970.8 1 92
2019-04-11 21:00:00 7.2 11 Noroeste 24 Noroeste 0 970.5 0.8 76
2019-04-11 20:00:00 8 9 Oeste 22 Oeste 0 970.1 0.7 79
2019-04-11 19:00:00 8.3 9 Noroeste 27 Oeste 0 969.8 0.5 78
2019-04-11 18:00:00 8.9 14 Oeste 36 Oeste 0.1 969.7 0.3 78
2019-04-11 17:00:00 8.1 6 Noroeste 31 Oeste 1.3 969.4 0 91
2019-04-11 16:00:00 7.3 11 Oeste 24 Oeste 0.7 969.3 -0.3 97
2019-04-11 15:00:00 7.7 11 Oeste 25 Oeste 0 969.4 -0.3 95
2019-04-11 14:00:00 6.6 14 Oeste 26 Oeste 0.3 969.4 0.2 98
2019-04-11 13:00:00 7 13 Oeste 25 Oeste 0 969.6 0.6 95
2019-04-11 12:00:00 6.3 12 Oeste 28 Oeste 0.4 969.7 1.1 98
2019-04-11 11:00:00 6.8 12 Oeste 29 Oeste 0 969.2 0.7 92
2019-04-11 10:00:00 5.9 18 Oeste 34 Noroeste 0.1 969 0.7 99
2019-04-11 09:00:00 6.2 10 Oeste 19 Oeste 0 968.6 0.2 99
2019-04-11 08:00:00 5.8 8 Oeste 15 Oeste 0 968.5 0.1 99
2019-04-11 07:00:00 5.6 6 Oeste 15 Oeste 0 968.3 -0.1 99
2019-04-11 06:00:00 5.7 9 Oeste 17 Oeste 0 968.4 0 99
2019-04-11 05:00:00 5.8 7 Oeste 19 Oeste 0 968.4 -0.5 99
2019-04-11 04:00:00 5.9 9 Oeste 20 Oeste 0.2 968.4 -0.2 99
2019-04-11 03:00:00 5.5 6 Oeste 14 Oeste 0 968.4 0 99
2019-04-11 02:00:00 5.5 7 Oeste 30 Oeste 1 968.9 0.8 99
2019-04-11 01:00:00 5.7 15 Oeste 24 Oeste 0.1 968.6 0.6 99
2019-04-11 00:00:00 6 9 Oeste 18 Oeste 0.2 968.4 1.4 98
2019-04-10 23:00:00 6 10 Oeste 19 Oeste 0 968.1 1.7 97
2019-04-10 22:00:00 6 0 Calma 20 Norte 0 968 1.8 93
2019-04-10 21:00:00 7.1 6 Noroeste 24 Oeste 0.2 967 1.2 96
2019-04-10 20:00:00 7.5 7 Oeste 20 Oeste 0 966.4 1 93
2019-04-10 19:00:00 7.4 6 Oeste 27 Oeste 0.1 966.2 0.7 92
2019-04-10 18:00:00 7.6 13 Oeste 28 Oeste 0 965.8 0.5 85
2019-04-10 17:00:00 7 11 Noroeste 23 Oeste 0 965.4 0.5 86
2019-04-10 16:00:00 6 15 Oeste 29 Oeste 0.1 965.5 0.7 97
2019-04-10 15:00:00 6 13 Oeste 24 Oeste 0.4 965.3 0.5 97
2019-04-10 14:00:00 7 0 Calma 22 Oeste 0 964.9 0.7 95
2019-04-10 13:00:00 5.7 6 Oeste 21 Oeste 6.8 964.8 1.2 95
2019-04-10 12:00:00 6.8 3 Oeste 20 Oeste 0.2 964.8 1.3 94
2019-04-10 11:00:00 6.5 10 Oeste 20 Noroeste 0 964.2 1.6 99
2019-04-10 10:00:00 5.3 0 Calma 6 Noroeste 0 963.6 1.4 99
2019-04-10 09:00:00 3.1 0 Calma 6 Sudoeste 0 963.5 1.5 99
2019-04-10 08:00:00 2.5 0 Calma 4 Sudoeste 0.1 962.6 0.7 99
2019-04-10 07:00:00 2.7 0 Calma 6 Sudoeste 0 962.2 0.3 99
2019-04-10 06:00:00 3 0 Calma 14 Sudoeste 0 962 0.2 99
2019-04-10 05:00:00 3.4 2 Oeste 7 Noroeste 0 961.9 0 99
2019-04-10 04:00:00 3.7 0 Calma 6 Oeste 0 961.9 0.2 99
2019-04-10 03:00:00 3.5 0 Calma 7 Oeste 0 961.8 -0.3 99
2019-04-10 02:00:00 3.5 0 Calma 6 Oeste 0 961.9 -0.1 99
2019-04-10 01:00:00 3.8 0 Calma 8 Oeste 0 961.7 -0.4 99
2019-04-10 00:00:00 4.3 0 Calma 4 Oeste 0 962.1 0.2 99
2019-04-09 23:00:00 5 0 Calma 12 Este 0.3 962 0.7 99
2019-04-09 22:00:00 5.3 0 Calma 8 Oeste 0.1 962.1 1.5 99
2019-04-09 21:00:00 5.5 4 Oeste 27 Oeste 1.5 961.9 2.2 99
2019-04-09 20:00:00 5.6 15 Oeste 37 Oeste 3.9 961.3 2.4 99
2019-04-09 19:00:00 6.7 11 Oeste 32 Oeste 3.5 960.6 2.2 98
2019-04-09 18:00:00 8.8 10 Oeste 27 Noroeste 0.2 959.7 1 75
2019-04-09 17:00:00 10.7 10 Noroeste 22 Noroeste 0.7 958.9 -0.2 58
2019-04-09 16:00:00 13.8 3 Oeste 21 Noroeste 0 958.4 -0.9 44
2019-04-09 15:00:00 13.7 2 Sudoeste 27 Noroeste 0 958.7 -0.9 46
2019-04-09 14:00:00 12.4 11 Oeste 24 Oeste 0 959.1 -0.8 47
2019-04-09 13:00:00 13.4 7 Oeste 29 Oeste 0 959.3 -0.6 49
2019-04-09 12:00:00 11.3 3 Oeste 28 Sudoeste 0 959.6 -0.4 54
2019-04-09 11:00:00 10.1 4 Sur 23 Oeste 0 959.9 -0.1 60
2019-04-09 10:00:00 8.5 3 Sudoeste 27 Sudoeste 0 959.9 -0.3 64
2019-04-09 09:00:00 8.2 0 Calma 23 Noroeste 0 960 -0.1 67
2019-04-09 08:00:00 5.5 0 Calma 12 Este 0 960 -0.3 81
2019-04-09 07:00:00 4.6 0 Calma 9 Sur 0 960.2 -0.5 86
2019-04-09 06:00:00 3.9 0 Calma 6 Sudoeste 0 960.1 -0.7 99
2019-04-09 05:00:00 3.6 0 Calma 3 Oeste 0 960.3 -0.7 99
2019-04-09 04:00:00 3.2 0 Calma 2 Sudoeste 0 960.7 -0.6 99
2019-04-09 03:00:00 3.5 0 Calma 2 Sudoeste 0 960.8 -0.7 99
2019-04-09 02:00:00 3.5 0 Calma 0 Calma 0 961 -0.5 99
2019-04-09 01:00:00 3.8 0 Calma 4 Sudoeste 0 961.3 -0.6 99
2019-04-09 00:00:00 3.6 0 Calma 3 Sudoeste 0 961.5 0.1 99
2019-04-08 23:00:00 4 0 Calma 8 Oeste 0 961.5 0.2 99
2019-04-08 22:00:00 5.1 0 Calma 5 Sudoeste 0 961.9 0.1 98
2019-04-08 21:00:00 6.5 0 Calma 3 Oeste 0 961.4 -0.4 96
2019-04-08 20:00:00 8.2 0 Calma 5 Noroeste 0 961.3 -0.5 88
2019-04-08 19:00:00 8.6 0 Calma 8 Noroeste 0.1 961.8 -0.5 85
2019-04-08 18:00:00 8.8 2 Norte 12 Noroeste 0.1 961.8 -0.9 81
2019-04-08 17:00:00 9.8 6 Este 12 Sudeste 0 961.8 -0.8 83
2019-04-08 16:00:00 9.5 0 Calma 8 Oeste 0.3 962.3 0.1 87
2019-04-08 15:00:00 8.7 2 Norte 10 Norte 0.2 962.7 0.9 95
2019-04-08 14:00:00 7.8 7 Oeste 16 Noroeste 1.7 962.6 1.4 99
2019-04-08 13:00:00 7.8 0 Calma 9 Este 6.8 962.2 1.7 99
2019-04-08 12:00:00 8.5 0 Calma 14 Oeste 0.3 961.8 1.7 99
2019-04-08 11:00:00 8.2 9 Oeste 19 Oeste 0.4 961.2 1.7 99
2019-04-08 10:00:00 8.5 0 Calma 8 Sudeste 0 960.5 1.4 94
2019-04-08 09:00:00 7.7 5 Sudeste 9 Este 0.1 960.1 1 94
2019-04-08 08:00:00 8.1 2 Sudeste 9 Sudeste 0.2 959.5 0.5 87
2019-04-08 07:00:00 8.8 0 Calma 6 Sur 0 959.1 0.3 75
2019-04-08 06:00:00 9.1 0 Calma 18 Sudeste 0 959.1 0.2 72
2019-04-08 05:00:00 9.4 0 Calma 21 Este 0 959 -0.1 64
2019-04-08 04:00:00 9.2 3 Sudeste 19 Noroeste 0 958.8 -0.9 62
2019-04-08 03:00:00 7.9 2 Sudeste 19 Sudeste 0 958.9 -1.2 64
2019-04-08 02:00:00 8.1 0 Calma 9 Sudoeste 0 959.1 -1.2 63
2019-04-08 01:00:00 8.6 0 Calma 8 Sur 0 959.7 -0.6 60
2019-04-08 00:00:00 9 0 Calma 21 Sur 0 960.1 -0.1 57
2019-04-07 23:00:00 9.3 4 Oeste 25 Oeste 0 960.3 0.4 56
2019-04-07 22:00:00 8.5 2 Sudeste 7 Sudeste 0 960.3 0.5 65
2019-04-07 21:00:00 9 0 Calma 12 Sudeste 0 960.2 0.4 60
2019-04-07 20:00:00 10.1 3 Sudeste 11 Sudeste 0 959.9 0 55
2019-04-07 19:00:00 11 2 Sudeste 13 Este 0 959.8 -0.3 53
2019-04-07 18:00:00 11.6 4 Este 14 Sudeste 0 959.8 -0.4 49
2019-04-07 17:00:00 11.2 0 Calma 17 Oeste 0 959.9 -0.1 50
2019-04-07 16:00:00 10.7 9 Noroeste 19 Oeste 0 960.1 0.2 51
2019-04-07 15:00:00 9.4 9 Noroeste 23 Noroeste 0 960.2 0.8 57
2019-04-07 14:00:00 9.2 13 Noroeste 26 Oeste 0 960 1.1 61
2019-04-07 13:00:00 8 9 Oeste 26 Oeste 0 959.9 1.6 70
2019-04-07 12:00:00 7.1 8 Oeste 19 Noroeste 0 959.4 1.9 78
2019-04-07 11:00:00 6.1 4 Noroeste 11 Oeste 0 958.9 2.4 94
2019-04-07 10:00:00 4.9 3 Noroeste 13 Oeste 0.1 958.3 2.5 99
2019-04-07 09:00:00 3.9 0 Calma 3 Oeste 0.2 957.5 2.6 99
2019-04-07 08:00:00 3.5 0 Calma 6 Oeste 0.1 956.5 2.2 99
2019-04-07 07:00:00 3.3 3 Oeste 7 Oeste 0.2 955.8 1.9 99
2019-04-07 06:00:00 3 0 Calma 3 Oeste 0 954.9 1.2 99
2019-04-07 05:00:00 3.1 0 Calma 5 Sudoeste 0 954.3 0.9 99
2019-04-07 04:00:00 3.5 0 Calma 0 Calma 0 953.9 0.7 99
2019-04-07 03:00:00 4 0 Calma 6 Oeste 0.1 953.7 1.3 99
2019-04-07 02:00:00 4.3 3 Oeste 22 Oeste 0.3 953.4 1.4 99
2019-04-07 01:00:00 4.4 8 Oeste 13 Oeste 0.1 953.2 1.7 99
2019-04-07 00:00:00 4.5 0 Calma 3 Sudeste 0 952.4 2 99
2019-04-06 23:00:00 4.4 0 Calma 5 Sudoeste 0 952 2.8 99
2019-04-06 22:00:00 4.9 0 Calma 29 Oeste 3 951.5 2.9 99
2019-04-06 21:00:00 5.6 14 Oeste 39 Oeste 0.5 950.4 2.4 87
2019-04-06 20:00:00 9.9 0 Calma 18 Sur 0 949.2 1.1 50
2019-04-06 19:00:00 10.2 2 Este 17 Noroeste 0 948.6 0.5 46
2019-04-06 18:00:00 11.1 3 Sudoeste 22 Sur 0 948 -0.6 45
2019-04-06 17:00:00 11.5 2 Sur 24 Oeste 0 948.1 -0.2 43
2019-04-06 16:00:00 11.6 2 Sur 33 Sur 0 948.1 -0.4 44
2019-04-06 15:00:00 9.5 4 Sudoeste 42 Sudoeste 0 948.6 -0.1 49
2019-04-06 14:00:00 9.5 8 Sudoeste 37 Oeste 0 948.3 -0.5 47
2019-04-06 13:00:00 9.8 5 Sudoeste 40 Sudeste 0 948.5 -0.3 48
2019-04-06 12:00:00 9 3 Oeste 27 Sur 0 948.7 -0.4 52
2019-04-06 11:00:00 7.5 4 Noroeste 28 Sudoeste 0 948.8 -0.2 60
2019-04-06 10:00:00 6.6 3 Sur 22 Noroeste 0 948.8 0 69
2019-04-06 09:00:00 2.5 0 Calma 8 Sudeste 0 949.1 0.2 99
2019-04-06 08:00:00 1.7 0 Calma 5 Sudoeste 0 949 0.2 99
2019-04-06 07:00:00 2.5 0 Calma 7 Sudeste 0 948.8 0.1 99
2019-04-06 06:00:00 3.7 0 Calma 0 Calma 0 948.9 0.1 99
2019-04-06 05:00:00 3.4 0 Calma 7 Oeste 0 948.8 -0.2 99
2019-04-06 04:00:00 3.4 0 Calma 5 Oeste 0 948.7 -0.1 99
2019-04-06 03:00:00 3.4 0 Calma 0 Calma 0 948.8 -0.2 99
2019-04-06 02:00:00 3.3 0 Calma 0 Calma 0 949 -0.1 99
2019-04-06 01:00:00 3.6 0 Calma 0 Calma 0 948.8 0.1 99
2019-04-06 00:00:00 3.6 0 Calma 0 Calma 0 949 1 99
2019-04-05 23:00:00 3.9 0 Calma 5 Sudeste 0 949.1 0.8 99
2019-04-05 22:00:00 4.1 0 Calma 9 Sudeste 0 948.7 0.8 99
2019-04-05 21:00:00 4.1 0 Calma 13 Sudeste 2.2 948 0.5 99
2019-04-05 20:00:00 4.4 5 Sudeste 10 Sudeste 1.2 948.3 0.6 99
2019-04-05 19:00:00 4.4 6 Este 15 Este 0 947.9 0.3 99
2019-04-05 18:00:00 4.4 5 Sudeste 12 Sudeste 1 947.5 0.2 99
2019-04-05 17:00:00 5.1 0 Calma 17 Oeste 3.4 947.7 0.4 94
2019-04-05 16:00:00 6.9 8 Noroeste 32 Oeste 0.1 947.6 0 74
2019-04-05 15:00:00 10.1 4 Sudeste 31 Sudeste 0 947.3 -0.7 59
2019-04-05 14:00:00 9.8 13 Sudeste 28 Sudeste 0 947.3 -0.3 60
2019-04-05 13:00:00 9.1 13 Sudeste 31 Sudeste 0 947.6 0.2 62
2019-04-05 12:00:00 8.3 9 Sudeste 28 Este 0 948 0.5 61
2019-04-05 11:00:00 8.5 10 Sudeste 32 Este 0 947.6 0.5 58
2019-04-05 10:00:00 7.7 6 Sudeste 27 Sudeste 0 947.4 0.7 55
2019-04-05 09:00:00 7.6 9 Sudeste 23 Sudeste 0 947.5 0.8 52
2019-04-05 08:00:00 7.8 3 Sudeste 28 Sudeste 0 947.1 0.3 48
2019-04-05 07:00:00 7.9 3 Sudeste 18 Sudeste 0 946.7 -0.7 46
2019-04-05 06:00:00 8 5 Sudeste 32 Sudeste 0 946.7 -1.3 43
2019-04-05 05:00:00 7.6 3 Sudeste 17 Sudeste 0 946.8 -1.8 44
2019-04-05 04:00:00 7.9 2 Sudeste 25 Sur 0 947.4 -1.9 46
2019-04-05 03:00:00 8 4 Sur 25 Sudeste 0 948 -1.3 46
2019-04-05 02:00:00 7.4 0 Calma 18 Sur 0 948.6 -0.9 48
2019-04-05 01:00:00 7.7 3 Oeste 21 Noroeste 0 949.3 0 48
2019-04-05 00:00:00 9 2 Sudoeste 26 Sur 0 949.3 0.2 38
2019-04-04 23:00:00 9.7 3 Sur 19 Sur 0 949.5 0.2 35
2019-04-04 22:00:00 9.8 0 Calma 13 Sur 0 949.3 0 35
2019-04-04 21:00:00 10.1 3 Sudeste 11 Sudoeste 0 949.1 -0.4 34
2019-04-04 20:00:00 10.8 0 Calma 19 Sur 0 949.3 -0.6 32
2019-04-04 19:00:00 11.5 5 Sur 28 Sudoeste 0 949.3 -1.3 30
2019-04-04 18:00:00 11.5 3 Sudoeste 38 Sur 0 949.5 -2.3 31
2019-04-04 17:00:00 12.4 4 Oeste 36 Oeste 0 949.9 -2.6 31
2019-04-04 16:00:00 11.2 5 Sur 27 Sudoeste 0 950.6 -3 36
2019-04-04 15:00:00 9.6 5 Sur 24 Sudoeste 0 951.8 -2.1 38
2019-04-04 14:00:00 8.7 6 Noroeste 18 Noroeste 0 952.5 -1.7 49
2019-04-04 13:00:00 7.3 10 Noroeste 30 Oeste 0.1 953.6 -0.6 55
2019-04-04 12:00:00 7.1 3 Oeste 13 Noroeste 0 953.9 -0.3 64
2019-04-04 11:00:00 4.6 3 Noroeste 8 Oeste 0 954.2 0.4 83
2019-04-04 10:00:00 2.3 3 Noroeste 26 Noroeste 0 954.2 0.4 99
2019-04-04 09:00:00 0.9 2 Oeste 7 Noroeste 0 954.2 0.7 99
2019-04-04 08:00:00 -0.1 0 Calma 7 Oeste 0.2 953.8 0 99
2019-04-04 07:00:00 -0.3 0 Calma 14 Oeste 0.7 953.8 -0.2 99
2019-04-04 06:00:00 0.1 0 Calma 12 Noroeste 0.3 953.5 -0.9 99
2019-04-04 05:00:00 0.2 8 Oeste 15 Oeste 0.6 953.8 -1.2 99
2019-04-04 04:00:00 0.4 8 Oeste 15 Oeste 0.1 954 -1.5 99
2019-04-04 03:00:00 0 0 Calma 13 Oeste 1.1 954.4 -1.8 99
2019-04-04 02:00:00 0.1 3 Oeste 19 Oeste 0.7 955 -1.3 99
2019-04-04 01:00:00 -0.3 0 Calma 7 Oeste 0.1 955.5 -0.8 99
2019-04-04 00:00:00 -0.3 0 Calma 5 Noroeste 0.4 956.2 0.2 99
2019-04-03 23:00:00 -0.1 0 Calma 26 Oeste 0 956.3 0.2 99
2019-04-03 22:00:00 0 15 Oeste 39 Oeste 1.5 956.3 0.6 99
2019-04-03 21:00:00 1.3 5 Noroeste 39 Noroeste 0.3 956 -0.2 97
2019-04-03 20:00:00 1.7 35 Oeste 59 Oeste 0.3 956.1 0 85
2019-04-03 19:00:00 4.2 20 Oeste 39 Noroeste 0 955.7 -0.8 65
2019-04-03 18:00:00 4.2 18 Noroeste 33 Oeste 0 956.2 -0.7 75
2019-04-03 17:00:00 4.4 17 Noroeste 39 Oeste 0 956.1 -0.7 77
2019-04-03 16:00:00 2.8 24 Oeste 62 Oeste 0.6 956.5 -0.9 93
2019-04-03 15:00:00 3.5 24 Oeste 52 Oeste 0.7 956.9 -1.5 92
2019-04-03 14:00:00 5.7 25 Oeste 46 Oeste 0.1 956.8 -1.5 65
2019-04-03 13:00:00 5.6 21 Oeste 42 Oeste 0.3 957.4 -1.3 75
2019-04-03 12:00:00 4.5 17 Oeste 34 Oeste 0 958.4 -0.6 82
2019-04-03 11:00:00 4.3 17 Oeste 30 Oeste 0 958.3 -0.7 85
2019-04-03 10:00:00 3.5 14 Oeste 32 Noroeste 0.6 958.7 -0.5 97
2019-04-03 09:00:00 3.5 13 Oeste 32 Oeste 0.3 959 -0.7 97
2019-04-03 08:00:00 4.1 14 Oeste 29 Oeste 0.7 959 -1.3 99
2019-04-03 07:00:00 4.6 11 Oeste 24 Oeste 0.4 959.2 -1.8 99
2019-04-03 06:00:00 4.6 0 Calma 9 Oeste 0.4 959.7 -2.4 99
2019-04-03 05:00:00 4.6 0 Calma 9 Oeste 0 960.3 -2.4 99
2019-04-03 04:00:00 4.7 4 Oeste 17 Oeste 0 961 -2.5 99
2019-04-03 03:00:00 4.8 9 Oeste 32 Oeste 0.5 962.1 -1.8 99
2019-04-03 02:00:00 5.6 11 Oeste 27 Oeste 0 962.7 -1.2 99
2019-04-03 01:00:00 5.8 11 Oeste 23 Oeste 0.6 963.5 -0.3 99
2019-04-03 00:00:00 6.3 14 Oeste 23 Oeste 0.7 963.9 0.1 99
2019-04-02 23:00:00 6.8 9 Oeste 26 Oeste 0.5 963.9 0 97
2019-04-02 22:00:00 7.6 3 Oeste 14 Oeste 0.4 963.8 -0.2 97
2019-04-02 21:00:00 8.2 6 Oeste 22 Oeste 0 963.8 -0.3 87
2019-04-02 20:00:00 9.3 8 Noroeste 21 Oeste 0 963.9 -0.5 75
2019-04-02 19:00:00 9.7 5 Noroeste 15 Noroeste 0 964 -0.5 76
2019-04-02 18:00:00 10.3 4 Norte 19 Noroeste 0 964.1 -0.9 76
2019-04-02 17:00:00 10.9 7 Norte 19 Norte 0 964.4 -1.3 75
2019-04-02 16:00:00 12.9 7 Norte 19 Noroeste 0 964.5 -1.9 60
2019-04-02 15:00:00 13.1 11 Norte 27 Oeste 0 965 -1.6 56
2019-04-02 14:00:00 13.2 9 Oeste 23 Oeste 0 965.7 -0.8 58
2019-04-02 13:00:00 11.8 8 Noroeste 25 Noroeste 0 966.4 0.7 70
2019-04-02 12:00:00 10.1 9 Oeste 23 Oeste 0 966.6 0.8 73
2019-04-02 11:00:00 9.1 17 Oeste 24 Oeste 0 966.5 1.1 81
2019-04-02 10:00:00 9.4 2 Oeste 7 Noroeste 0 965.7 0.6 93
2019-04-02 09:00:00 6.6 0 Calma 9 Sudoeste 0 965.8 1 99
2019-04-02 08:00:00 5.8 0 Calma 5 Oeste 0 965.4 0.5 99
2019-04-02 07:00:00 6.1 0 Calma 5 Oeste 0 965.1 -0.1 99
2019-04-02 06:00:00 7.4 0 Calma 6 Oeste 0 964.8 -0.5 97
2019-04-02 05:00:00 8.6 0 Calma 11 Oeste 0 964.9 -0.7 96
2019-04-02 04:00:00 8.7 0 Calma 8 Oeste 0 965.2 -0.3 94
2019-04-02 03:00:00 8.9 0 Calma 13 Oeste 0 965.3 -0.1 93
2019-04-02 02:00:00 9.3 0 Calma 17 Oeste 0 965.6 0.5 90
2019-04-02 01:00:00 10 7 Oeste 15 Oeste 0 965.5 0.8 87
2019-04-02 00:00:00 10 3 Oeste 9 Sudoeste 0 965.4 1.2 85
2019-04-01 23:00:00 10.4 3 Oeste 7 Oeste 0 965.1 1.4 84
2019-04-01 22:00:00 10.5 0 Calma 6 Oeste 0 964.7 1.2 81
2019-04-01 21:00:00 11 0 Calma 0 Calma 0 964.2 0.9 76
2019-04-01 20:00:00 11.9 0 Calma 2 Este 0 963.7 0.2 69
2019-04-01 19:00:00 12.7 0 Calma 6 Este 0 963.5 -0.1 64
2019-04-01 18:00:00 12.7 0 Calma 10 Este 0 963.3 -0.8 61
2019-04-01 17:00:00 12.7 3 Sudeste 12 Sudeste 0 963.5 -0.8 61
2019-04-01 16:00:00 12.9 4 Sudeste 16 Este 0 963.6 -0.9 60
2019-04-01 15:00:00 13 6 Este 21 Este 0 964.1 -0.8 61
2019-04-01 14:00:00 12.7 9 Este 21 Este 0 964.3 -0.6 64
2019-04-01 13:00:00 11.7 8 Este 17 Nordeste 0 964.5 0 66
2019-04-01 12:00:00 10.8 7 Este 13 Este 0 964.9 0.6 73
2019-04-01 11:00:00 10 3 Nordeste 7 Nordeste 0 964.9 0.8 87
2019-04-01 10:00:00 7.2 0 Calma 4 Este 0 964.5 0.9 99
2019-04-01 09:00:00 6.6 0 Calma 4 Sudeste 0 964.3 0.5 99
2019-04-01 08:00:00 6.3 0 Calma 3 Este 0 964.1 0 99
2019-04-01 07:00:00 6.6 0 Calma 2 Sudoeste 0.1 963.6 -0.8 99
2019-04-01 06:00:00 6.6 0 Calma 0 Calma 0.3 963.8 -1.2 99
2019-04-01 05:00:00 6.5 0 Calma 2 Sudoeste 0.4 964.1 -0.8 99
2019-04-01 04:00:00 6.8 0 Calma 3 Norte 1.2 964.4 -0.2 99
2019-04-01 03:00:00 7 0 Calma 10 Sudeste 1.2 965 0.6 97
2019-04-01 02:00:00 9.2 5 Este 21 Este 0 964.9 0.7 67
2019-04-01 01:00:00 10.3 0 Calma 7 Sudeste 0 964.6 0.8 56
2019-04-01 00:00:00 10.9 3 Sudeste 14 Sudeste 0 964.4 1.1 53
2019-03-31 23:00:00 10.9 0 Calma 3 Este 0 964.2 1.2 55
2019-03-31 22:00:00 11.2 0 Calma 5 Este 0 963.8 0.9 54
2019-03-31 21:00:00 12 0 Calma 5 Noroeste 0 963.3 0.7 50
2019-03-31 20:00:00 13.6 0 Calma 13 Noroeste 0 963 0.1 45
2019-03-31 19:00:00 14.3 4 Norte 21 Noroeste 0 962.9 -0.1 43
2019-03-31 18:00:00 15.8 10 Noroeste 19 Noroeste 0 962.6 -1.3 40
2019-03-31 17:00:00 16.2 6 Norte 15 Noroeste 0 962.9 -1.7 41
2019-03-31 16:00:00 17.4 8 Sudeste 20 Sudeste 0 963 -2.3 37
2019-03-31 15:00:00 17.9 4 Sudeste 16 Sudeste 0 963.9 -1.9 37
2019-03-31 14:00:00 16.8 5 Este 16 Este 0 964.6 -1.4 42
2019-03-31 13:00:00 15.7 5 Este 15 Este 0 965.3 -0.5 46
2019-03-31 12:00:00 14.2 5 Este 14 Nordeste 0 965.8 0.3 52
2019-03-31 11:00:00 12.4 5 Este 13 Este 0 966 0.7 56
2019-03-31 10:00:00 10.1 3 Nordeste 10 Este 0 965.8 0.4 64
2019-03-31 09:00:00 7.9 0 Calma 0 Calma 0 965.5 -0.4 71
2019-03-31 08:00:00 6.9 0 Calma 2 Oeste 0 965.3 -1.1 68
2019-03-31 07:00:00 7.3 0 Calma 0 Calma 0 965.4 -1.5 61
2019-03-31 06:00:00 7.8 0 Calma 14 Sudeste 0 965.9 -1.4 56
2019-03-31 05:00:00 8.5 0 Calma 12 Sudeste 0 966.4 -1.2 51
2019-03-31 03:00:00 9.2 0 Calma 0 Calma 0 967.3 -0.6 48
2019-03-31 01:00:00 9.3 0 Calma 0 Calma 0 967.6 -0.2 48
2019-03-31 00:00:00 9.6 0 Calma 0 Calma 0 967.8 0.3 47
2019-03-30 23:00:00 10 0 Calma 0 Calma 0 967.9 1.1 46
2019-03-30 22:00:00 10.9 0 Calma 0 Calma 0 967.8 1.4 44
2019-03-30 21:00:00 11.8 0 Calma 6 Sudeste 0 967.5 1.2 42
2019-03-30 20:00:00 12.7 0 Calma 3 Sudeste 0 966.8 0.6 40
2019-03-30 19:00:00 14.9 0 Calma 13 Sudeste 0 966.4 -0.4 37
2019-03-30 18:00:00 16.6 4 Sudeste 14 Sudeste 0 966.3 -1 34
2019-03-30 17:00:00 17.5 8 Este 17 Este 0 966.2 -1.8 32
2019-03-30 16:00:00 18.5 5 Este 22 Sudeste 0 966.8 -1.9 33
2019-03-30 15:00:00 17.7 12 Este 23 Sudeste 0 967.3 -2 34
2019-03-30 14:00:00 17.2 14 Este 28 Este 0 968 -1.7 35
2019-03-30 13:00:00 16.5 9 Sudeste 27 Sudeste 0 968.7 -1.5 38
2019-03-30 12:00:00 15.3 9 Sudeste 27 Sudeste 0 969.3 -1.1 40
2019-03-30 11:00:00 13.8 8 Sudeste 24 Este 0 969.7 -0.7 42
2019-03-30 10:00:00 12.4 9 Este 28 Este 0 970.2 0.1 44
2019-03-30 09:00:00 10.5 9 Sudeste 26 Sudeste 0 970.4 0.4 46
2019-03-30 08:00:00 9 10 Sudeste 26 Sudeste 0 970.4 0.4 48
2019-03-30 07:00:00 8.3 7 Sudeste 27 Sudeste 0 970.1 -0.1 47
2019-03-30 06:00:00 8.5 6 Sudeste 26 Sudeste 0 970 -0.3 46
2019-03-30 05:00:00 8.8 4 Sudeste 15 Sudeste 0 970 -0.6 44
2019-03-30 04:00:00 9.2 0 Calma 19 Este 0 970.2 -0.6 44
2019-03-30 03:00:00 10 4 Este 16 Este 0 970.3 -0.5 43
2019-03-30 02:00:00 10.3 5 Este 23 Este 0 970.6 -0.2 44
2019-03-30 01:00:00 11.3 4 Sudeste 29 Este 0 970.8 0.2 42
2019-03-30 00:00:00 12.2 7 Sudeste 36 Este 0 970.8 0.5 40
2019-03-29 23:00:00 12.5 6 Este 31 Sudeste 0 970.8 0.8 39
2019-03-29 22:00:00 12.7 5 Sudeste 28 Este 0 970.6 0.8 36
2019-03-29 21:00:00 13.2 3 Este 23 Este 0 970.3 0.9 34
2019-03-29 20:00:00 13.8 2 Sudeste 14 Sudeste 0 970 0.2 32
2019-03-29 19:00:00 15.1 2 Sudeste 19 Este 0 969.8 -0.4 32
2019-03-29 18:00:00 16.5 4 Sudeste 24 Sudeste 0 969.4 -1.4 30
2019-03-29 17:00:00 17.2 8 Sudeste 27 Este 0 969.8 -1.4 31
2019-03-29 16:00:00 17.7 8 Sudeste 27 Este 0 970.2 -1.9 31
2019-03-29 15:00:00 18 8 Sudeste 28 Sudeste 0 970.8 -1.9 31
2019-03-29 14:00:00 17.2 10 Sudeste 30 Sudeste 0 971.2 -2 33
2019-03-29 13:00:00 16.4 11 Sudeste 24 Sudeste 0 972.1 -1.5 34
2019-03-29 12:00:00 15 11 Sudeste 35 Este 0 972.7 -0.9 36
2019-03-29 11:00:00 13.7 7 Este 26 Sudeste 0 973.2 -0.7 41
2019-03-29 10:00:00 11.6 6 Este 16 Sudeste 0 973.6 -0.6 47
2019-03-29 09:00:00 7.6 0 Calma 2 Oeste 0 973.6 -0.7 66
2019-03-29 08:00:00 4.4 0 Calma 0 Calma 0 973.9 -0.5 85
2019-03-29 07:00:00 2.4 0 Calma 0 Calma 0 974.2 -0.6 99
2019-03-29 06:00:00 1.7 0 Calma 0 Calma 0 974.3 -0.8 99
2019-03-29 05:00:00 1.7 0 Calma 0 Calma 0 974.4 -1.1 97
2019-03-29 04:00:00 2.1 0 Calma 5 Sudoeste 0 974.8 -1.3 97
2019-03-29 03:00:00 2.4 0 Calma 8 Sudoeste 0 975.1 -1.4 96
2019-03-29 02:00:00 2.1 0 Calma 12 Sudoeste 0 975.5 -1.4 94
2019-03-29 01:00:00 1.7 0 Calma 9 Sudoeste 0 976.1 -1.1 93
2019-03-29 00:00:00 2.7 0 Calma 7 Sudoeste 0 976.5 -0.5 90
2019-03-28 23:00:00 3.5 0 Calma 5 Sudoeste 0 976.9 0.3 89
2019-03-28 22:00:00 4.6 0 Calma 3 Oeste 0 977.2 0.7 82
2019-03-28 21:00:00 6.3 0 Calma 7 Noroeste 0 977 0.7 76
2019-03-28 20:00:00 7.3 0 Calma 11 Norte 0 976.6 0.4 68
2019-03-28 19:00:00 9.3 5 Norte 17 Norte 0 976.5 0 58
2019-03-28 18:00:00 10.5 6 Norte 18 Nordeste 0 976.3 -0.8 52
2019-03-28 17:00:00 11.7 6 Norte 18 Nordeste 0 976.2 -1.3 49
2019-03-28 16:00:00 12.7 7 Norte 20 Norte 0 976.5 -1.7 49
2019-03-28 15:00:00 12.4 7 Nordeste 17 Nordeste 0 977.1 -1.8 50
2019-03-28 14:00:00 11.8 8 Nordeste 21 Nordeste 0 977.5 -1.8 50
2019-03-28 13:00:00 12.1 6 Nordeste 17 Nordeste 0 978.2 -1.2 49
2019-03-28 12:00:00 11.4 5 Nordeste 20 Nordeste 0 978.9 -0.4 55
2019-03-28 11:00:00 9.6 6 Noroeste 17 Oeste 0 979.3 0.2 69
2019-03-28 10:00:00 7.3 8 Noroeste 16 Oeste 0 979.4 0.5 85
2019-03-28 09:00:00 6 5 Oeste 12 Oeste 0 979.3 0.7 99
2019-03-28 08:00:00 4.5 0 Calma 6 Oeste 0 979.1 0.7 99
2019-03-28 07:00:00 3.9 2 Sudoeste 10 Sudoeste 0 978.9 0.5 99
2019-03-28 06:00:00 3.8 3 Oeste 14 Sudoeste 0 978.6 0.3 99
2019-03-28 05:00:00 4.5 4 Oeste 17 Sudoeste 0 978.4 -0.1 99
2019-03-28 04:00:00 4.9 4 Oeste 14 Oeste 0 978.4 -0.4 97
2019-03-28 03:00:00 4.9 4 Oeste 15 Oeste 0 978.3 -0.6 97
2019-03-28 02:00:00 3.6 5 Oeste 18 Oeste 0 978.5 -0.5 97
2019-03-28 01:00:00 3 5 Sudoeste 15 Oeste 0 978.8 -0.2 96
2019-03-28 00:00:00 4.4 7 Oeste 17 Oeste 0 978.9 -0.1 93
2019-03-27 23:00:00 4.3 6 Oeste 15 Oeste 0 979 0.9 90
2019-03-27 22:00:00 5.2 3 Oeste 13 Oeste 0 979 1.2 85
2019-03-27 21:00:00 5.4 3 Oeste 17 Oeste 0 979 2 80
2019-03-27 20:00:00 6.1 5 Noroeste 19 Norte 0 978.1 1.6 76
2019-03-27 19:00:00 7 6 Norte 21 Noroeste 0 977.8 1.2 67
2019-03-27 18:00:00 8.4 12 Norte 26 Norte 0 977 0.2 54
2019-03-27 17:00:00 9.7 6 Norte 24 Nordeste 0 976.5 -0.4 49
2019-03-27 16:00:00 11.5 7 Norte 22 Nordeste 0 976.6 -0.8 42
2019-03-27 15:00:00 11.7 8 Nordeste 19 Nordeste 0 976.8 -0.8 39
2019-03-27 14:00:00 12.5 7 Norte 21 Noroeste 0 976.9 -0.7 37
2019-03-27 13:00:00 10.7 10 Nordeste 23 Nordeste 0 977.4 0.2 38
2019-03-27 12:00:00 10.7 5 Nordeste 19 Nordeste 0 977.6 0.7 46
2019-03-27 11:00:00 9.2 5 Oeste 17 Oeste 0 977.6 0.9 58
2019-03-27 10:00:00 7 6 Oeste 16 Noroeste 0 977.2 1.1 70
2019-03-27 09:00:00 5.1 3 Oeste 10 Oeste 0 976.9 1.1 85
2019-03-27 08:00:00 1.7 4 Oeste 17 Oeste 0 976.7 1.3 95
2019-03-27 07:00:00 1 3 Oeste 12 Oeste 0 976.1 0.4 98
2019-03-27 06:00:00 0.4 4 Sudoeste 13 Sudoeste 0 975.8 0.1 98
2019-03-27 05:00:00 1.6 2 Oeste 15 Oeste 0 975.4 -0.7 94
2019-03-27 04:00:00 3 6 Oeste 19 Oeste 0 975.7 -0.8 92
2019-03-27 03:00:00 1.7 2 Sudoeste 8 Oeste 0 975.7 -0.7 95
2019-03-27 02:00:00 2.9 0 Calma 12 Sudoeste 0 976.1 -0.5 95
2019-03-27 01:00:00 2.9 3 Sudoeste 13 Sudoeste 0 976.5 0 96
2019-03-27 00:00:00 3.3 7 Sudoeste 19 Sudoeste 0 976.4 0.1 91